sensor_id;sensor_type;location;lat;lon;timestamp;noise_LAeq;noise_LA_min;noise_LA_max;noise_LA01;noise_LA95
52872;Laerm;40124;52.198;9.902;2023-04-15T00:01:29;63.02;40.33;79.35;;
52872;Laerm;40124;52.198;9.902;2023-04-15T00:03:57;63.34;39.46;81.33;;
52872;Laerm;40124;52.198;9.902;2023-04-15T00:06:23;56.32;39.58;75.05;;
52872;Laerm;40124;52.198;9.902;2023-04-15T00:08:48;57.12;39.70;77.00;;
52872;Laerm;40124;52.198;9.902;2023-04-15T00:11:15;61.58;38.81;81.31;;
52872;Laerm;40124;52.198;9.902;2023-04-15T00:13:40;61.98;38.21;80.79;;
52872;Laerm;40124;52.198;9.902;2023-04-15T00:16:08;61.17;39.08;80.61;;
52872;Laerm;40124;52.198;9.902;2023-04-15T00:18:33;47.48;38.95;65.42;;
52872;Laerm;40124;52.198;9.902;2023-04-15T00:20:59;59.51;38.21;76.69;;
52872;Laerm;40124;52.198;9.902;2023-04-15T00:23:24;57.18;39.08;77.71;;
52872;Laerm;40124;52.198;9.902;2023-04-15T00:25:50;59.10;38.05;77.38;;
52872;Laerm;40124;52.198;9.902;2023-04-15T00:28:15;41.31;37.70;48.16;;
52872;Laerm;40124;52.198;9.902;2023-04-15T00:30:41;65.45;38.37;82.14;;
52872;Laerm;40124;52.198;9.902;2023-04-15T00:33:06;59.02;39.46;76.94;;
52872;Laerm;40124;52.198;9.902;2023-04-15T00:35:32;56.44;37.12;75.76;;
52872;Laerm;40124;52.198;9.902;2023-04-15T00:37:57;57.39;40.62;77.00;;
52872;Laerm;40124;52.198;9.902;2023-04-15T00:40:23;60.77;38.21;83.61;;
52872;Laerm;40124;52.198;9.902;2023-04-15T00:42:50;60.51;39.34;78.50;;
52872;Laerm;40124;52.198;9.902;2023-04-15T00:45:15;41.75;38.81;45.60;;
52872;Laerm;40124;52.198;9.902;2023-04-15T00:47:40;65.25;40.13;84.66;;
52872;Laerm;40124;52.198;9.902;2023-04-15T00:50:07;61.16;40.23;78.32;;
52872;Laerm;40124;52.198;9.902;2023-04-15T00:52:32;62.99;39.34;79.73;;
52872;Laerm;40124;52.198;9.902;2023-04-15T00:54:58;60.36;38.37;78.73;;
52872;Laerm;40124;52.198;9.902;2023-04-15T00:57:23;62.32;38.52;78.06;;
52872;Laerm;40124;52.198;9.902;2023-04-15T00:59:50;62.17;38.81;81.14;;
52872;Laerm;40124;52.198;9.902;2023-04-15T01:02:16;59.85;39.21;77.76;;
52872;Laerm;40124;52.198;9.902;2023-04-15T01:04:41;51.01;38.05;67.65;;
52872;Laerm;40124;52.198;9.902;2023-04-15T01:07:07;60.38;38.21;78.17;;
52872;Laerm;40124;52.198;9.902;2023-04-15T01:09:33;62.35;40.43;81.02;;
52872;Laerm;40124;52.198;9.902;2023-04-15T01:11:58;62.05;40.23;80.65;;
52872;Laerm;40124;52.198;9.902;2023-04-15T01:14:24;62.91;39.70;78.39;;
52872;Laerm;40124;52.198;9.902;2023-04-15T01:16:49;62.39;39.21;77.91;;
52872;Laerm;40124;52.198;9.902;2023-04-15T01:19:15;68.34;39.21;89.49;;
52872;Laerm;40124;52.198;9.902;2023-04-15T01:21:41;41.53;38.37;46.23;;
52872;Laerm;40124;52.198;9.902;2023-04-15T01:24:10;41.01;37.88;44.43;;
52872;Laerm;40124;52.198;9.902;2023-04-15T01:26:38;40.16;36.91;43.68;;
52872;Laerm;40124;52.198;9.902;2023-04-15T01:29:04;54.98;38.95;74.88;;
52872;Laerm;40124;52.198;9.902;2023-04-15T01:31:30;59.53;38.81;76.83;;
52872;Laerm;40124;52.198;9.902;2023-04-15T01:33:55;57.01;36.91;76.26;;
52872;Laerm;40124;52.198;9.902;2023-04-15T01:36:20;42.02;36.91;67.61;;
52872;Laerm;40124;52.198;9.902;2023-04-15T01:38:46;64.12;37.12;80.48;;
52872;Laerm;40124;52.198;9.902;2023-04-15T01:41:12;68.62;37.70;88.05;;
52872;Laerm;40124;52.198;9.902;2023-04-15T01:43:37;41.28;37.12;47.32;;
52872;Laerm;40124;52.198;9.902;2023-04-15T01:46:02;53.77;40.23;73.39;;
52872;Laerm;40124;52.198;9.902;2023-04-15T01:48:27;41.66;36.91;43.99;;
52872;Laerm;40124;52.198;9.902;2023-04-15T01:50:53;68.01;38.52;88.37;;
52872;Laerm;40124;52.198;9.902;2023-04-15T01:53:19;43.96;38.37;65.46;;
52872;Laerm;40124;52.198;9.902;2023-04-15T01:55:44;59.92;37.70;78.21;;
52872;Laerm;40124;52.198;9.902;2023-04-15T01:58:09;57.99;38.05;77.25;;
52872;Laerm;40124;52.198;9.902;2023-04-15T02:00:35;60.50;39.46;81.09;;
52872;Laerm;40124;52.198;9.902;2023-04-15T02:03:00;57.63;38.95;78.32;;
52872;Laerm;40124;52.198;9.902;2023-04-15T02:05:25;41.41;36.69;50.39;;
52872;Laerm;40124;52.198;9.902;2023-04-15T02:07:51;40.59;36.20;43.28;;
52872;Laerm;40124;52.198;9.902;2023-04-15T02:10:17;56.16;37.88;76.28;;
52872;Laerm;40124;52.198;9.902;2023-04-15T02:12:42;62.90;38.32;81.98;;
52872;Laerm;40124;52.198;9.902;2023-04-15T02:15:08;41.20;38.05;46.02;;
52872;Laerm;40124;52.198;9.902;2023-04-15T02:17:34;56.81;39.81;77.02;;
52872;Laerm;40124;52.198;9.902;2023-04-15T02:19:59;57.55;40.96;76.21;;
52872;Laerm;40124;52.198;9.902;2023-04-15T02:22:24;56.75;36.91;76.71;;
52872;Laerm;40124;52.198;9.902;2023-04-15T02:24:50;40.65;36.45;46.30;;
52872;Laerm;40124;52.198;9.902;2023-04-15T02:27:15;62.39;37.88;77.85;;
52872;Laerm;40124;52.198;9.902;2023-04-15T02:29:42;48.67;38.95;59.55;;
52872;Laerm;40124;52.198;9.902;2023-04-15T02:32:07;57.37;38.81;74.71;;
52872;Laerm;40124;52.198;9.902;2023-04-15T02:34:32;59.43;38.67;79.45;;
52872;Laerm;40124;52.198;9.902;2023-04-15T02:36:57;50.80;36.69;61.08;;
52872;Laerm;40124;52.198;9.902;2023-04-15T02:39:23;42.74;38.99;49.53;;
52872;Laerm;40124;52.198;9.902;2023-04-15T02:41:48;63.04;39.81;79.22;;
52872;Laerm;40124;52.198;9.902;2023-04-15T02:44:16;62.34;39.58;80.22;;
52872;Laerm;40124;52.198;9.902;2023-04-15T02:46:44;65.01;38.95;84.67;;
52872;Laerm;40124;52.198;9.902;2023-04-15T02:49:12;61.72;38.52;80.14;;
52872;Laerm;40124;52.198;9.902;2023-04-15T02:51:38;58.69;38.21;76.79;;
52872;Laerm;40124;52.198;9.902;2023-04-15T02:54:03;59.03;38.05;79.14;;
52872;Laerm;40124;52.198;9.902;2023-04-15T02:56:28;57.90;40.03;77.87;;
52872;Laerm;40124;52.198;9.902;2023-04-15T02:58:54;63.37;38.67;84.82;;
52872;Laerm;40124;52.198;9.902;2023-04-15T03:01:20;42.45;38.37;46.20;;
52872;Laerm;40124;52.198;9.902;2023-04-15T03:03:45;65.81;41.46;86.40;;
52872;Laerm;40124;52.198;9.902;2023-04-15T03:06:11;61.59;41.68;79.53;;
52872;Laerm;40124;52.198;9.902;2023-04-15T03:08:36;56.07;41.89;74.68;;
52872;Laerm;40124;52.198;9.902;2023-04-15T03:11:01;60.54;42.09;79.15;;
52872;Laerm;40124;52.198;9.902;2023-04-15T03:13:26;64.42;41.88;82.45;;
52872;Laerm;40124;52.198;9.902;2023-04-15T03:15:51;60.70;41.82;82.49;;
52872;Laerm;40124;52.198;9.902;2023-04-15T03:18:16;45.75;41.96;59.06;;
52872;Laerm;40124;52.198;9.902;2023-04-15T03:20:42;66.61;41.89;82.40;;
52872;Laerm;40124;52.198;9.902;2023-04-15T03:23:07;60.95;41.53;77.69;;
52872;Laerm;40124;52.198;9.902;2023-04-15T03:25:32;64.59;41.38;80.84;;
52872;Laerm;40124;52.198;9.902;2023-04-15T03:27:58;63.44;40.23;78.95;;
52872;Laerm;40124;52.198;9.902;2023-04-15T03:30:23;64.56;39.70;81.70;;
52872;Laerm;40124;52.198;9.902;2023-04-15T03:32:49;63.43;40.03;78.46;;
52872;Laerm;40124;52.198;9.902;2023-04-15T03:35:14;65.36;40.98;80.81;;
52872;Laerm;40124;52.198;9.902;2023-04-15T03:37:39;65.66;39.81;80.39;;
52872;Laerm;40124;52.198;9.902;2023-04-15T03:40:05;65.01;40.53;80.68;;
52872;Laerm;40124;52.198;9.902;2023-04-15T03:42:31;65.82;40.53;81.48;;
52872;Laerm;40124;52.198;9.902;2023-04-15T03:44:56;66.14;40.53;81.01;;
52872;Laerm;40124;52.198;9.902;2023-04-15T03:47:21;61.65;41.38;78.91;;
52872;Laerm;40124;52.198;9.902;2023-04-15T03:49:46;64.13;40.62;81.51;;
52872;Laerm;40124;52.198;9.902;2023-04-15T03:52:11;62.34;41.53;79.80;;
52872;Laerm;40124;52.198;9.902;2023-04-15T03:54:36;52.97;42.09;67.88;;
52872;Laerm;40124;52.198;9.902;2023-04-15T03:57:02;64.53;41.22;83.25;;
52872;Laerm;40124;52.198;9.902;2023-04-15T03:59:27;71.83;41.68;88.03;;
52872;Laerm;40124;52.198;9.902;2023-04-15T04:01:52;64.42;42.16;85.34;;
52872;Laerm;40124;52.198;9.902;2023-04-15T04:04:17;61.14;41.82;77.97;;
52872;Laerm;40124;52.198;9.902;2023-04-15T04:06:42;65.17;42.22;81.92;;
52872;Laerm;40124;52.198;9.902;2023-04-15T04:09:08;62.04;42.03;79.66;;
52872;Laerm;40124;52.198;9.902;2023-04-15T04:11:33;70.81;41.53;87.26;;
52872;Laerm;40124;52.198;9.902;2023-04-15T04:13:58;66.45;41.96;80.46;;
52872;Laerm;40124;52.198;9.902;2023-04-15T04:16:23;62.79;41.75;80.06;;
52872;Laerm;40124;52.198;9.902;2023-04-15T04:18:48;69.81;42.53;85.67;;
52872;Laerm;40124;52.198;9.902;2023-04-15T04:21:14;59.17;42.47;78.69;;
52872;Laerm;40124;52.198;9.902;2023-04-15T04:23:39;64.53;43.68;83.21;;
52872;Laerm;40124;52.198;9.902;2023-04-15T04:26:04;69.95;42.98;90.46;;
52872;Laerm;40124;52.198;9.902;2023-04-15T04:28:30;67.59;43.14;85.11;;
52872;Laerm;40124;52.198;9.902;2023-04-15T04:30:55;63.50;42.88;84.04;;
52872;Laerm;40124;52.198;9.902;2023-04-15T04:33:20;58.78;42.47;77.72;;
52872;Laerm;40124;52.198;9.902;2023-04-15T04:35:45;71.66;44.19;84.99;;
52872;Laerm;40124;52.198;9.902;2023-04-15T04:38:10;64.64;41.89;81.80;;
52872;Laerm;40124;52.198;9.902;2023-04-15T04:40:36;68.36;44.35;81.58;;
52872;Laerm;40124;52.198;9.902;2023-04-15T04:43:01;60.92;40.03;81.19;;
52872;Laerm;40124;52.198;9.902;2023-04-15T04:45:26;67.17;41.30;86.04;;
52872;Laerm;40124;52.198;9.902;2023-04-15T04:47:51;70.81;41.68;87.77;;
52872;Laerm;40124;52.198;9.902;2023-04-15T04:50:16;66.44;41.68;82.84;;
52872;Laerm;40124;52.198;9.902;2023-04-15T04:52:42;66.96;42.29;84.89;;
52872;Laerm;40124;52.198;9.902;2023-04-15T04:55:07;67.84;43.24;84.67;;
52872;Laerm;40124;52.198;9.902;2023-04-15T04:57:32;68.56;47.46;82.76;;
52872;Laerm;40124;52.198;9.902;2023-04-15T04:59:59;69.85;43.99;82.31;;
52872;Laerm;40124;52.198;9.902;2023-04-15T05:02:24;67.14;42.82;82.15;;
52872;Laerm;40124;52.198;9.902;2023-04-15T05:04:51;66.78;46.20;80.49;;
52872;Laerm;40124;52.198;9.902;2023-04-15T05:07:18;68.85;44.03;82.94;;
52872;Laerm;40124;52.198;9.902;2023-04-15T05:09:44;68.17;44.54;81.50;;
52872;Laerm;40124;52.198;9.902;2023-04-15T05:12:10;65.58;44.07;82.75;;
52872;Laerm;40124;52.198;9.902;2023-04-15T05:14:38;69.53;43.81;82.89;;
52872;Laerm;40124;52.198;9.902;2023-04-15T05:17:04;68.13;43.72;84.27;;
52872;Laerm;40124;52.198;9.902;2023-04-15T05:19:29;71.04;43.04;89.19;;
52872;Laerm;40124;52.198;9.902;2023-04-15T05:21:54;69.86;42.65;85.94;;
52872;Laerm;40124;52.198;9.902;2023-04-15T05:24:20;70.61;43.54;83.66;;
52872;Laerm;40124;52.198;9.902;2023-04-15T05:26:45;64.21;42.22;79.46;;
52872;Laerm;40124;52.198;9.902;2023-04-15T05:29:10;67.46;42.76;83.26;;
52872;Laerm;40124;52.198;9.902;2023-04-15T05:31:36;69.24;44.76;84.45;;
52872;Laerm;40124;52.198;9.902;2023-04-15T05:34:01;66.28;43.29;83.20;;
52872;Laerm;40124;52.198;9.902;2023-04-15T05:36:26;64.15;43.86;81.60;;
52872;Laerm;40124;52.198;9.902;2023-04-15T05:38:52;67.06;42.65;79.19;;
52872;Laerm;40124;52.198;9.902;2023-04-15T05:41:18;73.95;44.03;88.59;;
52872;Laerm;40124;52.198;9.902;2023-04-15T05:43:43;66.57;43.44;82.17;;
52872;Laerm;40124;52.198;9.902;2023-04-15T05:46:08;64.04;42.98;79.36;;
52872;Laerm;40124;52.198;9.902;2023-04-15T05:48:33;69.63;44.39;83.88;;
52872;Laerm;40124;52.198;9.902;2023-04-15T05:50:58;65.42;43.44;80.78;;
52872;Laerm;40124;52.198;9.902;2023-04-15T05:53:24;66.38;43.34;82.66;;
52872;Laerm;40124;52.198;9.902;2023-04-15T05:55:49;70.76;45.07;87.17;;
52872;Laerm;40124;52.198;9.902;2023-04-15T05:58:14;70.61;45.77;82.86;;
52872;Laerm;40124;52.198;9.902;2023-04-15T06:00:39;69.04;42.65;84.61;;
52872;Laerm;40124;52.198;9.902;2023-04-15T06:03:05;67.09;41.68;82.09;;
52872;Laerm;40124;52.198;9.902;2023-04-15T06:05:30;69.01;42.71;81.97;;
52872;Laerm;40124;52.198;9.902;2023-04-15T06:07:55;67.90;42.88;81.63;;
52872;Laerm;40124;52.198;9.902;2023-04-15T06:10:20;71.50;43.44;86.87;;
52872;Laerm;40124;52.198;9.902;2023-04-15T06:12:45;70.10;43.94;82.95;;
52872;Laerm;40124;52.198;9.902;2023-04-15T06:15:10;69.99;44.90;83.81;;
52872;Laerm;40124;52.198;9.902;2023-04-15T06:17:36;70.59;42.53;81.96;;
52872;Laerm;40124;52.198;9.902;2023-04-15T06:20:02;68.62;42.93;82.80;;
52872;Laerm;40124;52.198;9.902;2023-04-15T06:22:27;69.65;45.23;85.10;;
52872;Laerm;40124;52.198;9.902;2023-04-15T06:24:52;71.42;44.43;82.84;;
52872;Laerm;40124;52.198;9.902;2023-04-15T06:27:18;70.59;43.29;85.34;;
52872;Laerm;40124;52.198;9.902;2023-04-15T06:29:43;72.01;47.36;86.52;;
52872;Laerm;40124;52.198;9.902;2023-04-15T06:32:09;69.79;44.62;81.96;;
52872;Laerm;40124;52.198;9.902;2023-04-15T06:34:35;69.86;45.39;82.56;;
52872;Laerm;40124;52.198;9.902;2023-04-15T06:37:00;70.46;45.89;85.03;;
52872;Laerm;40124;52.198;9.902;2023-04-15T06:39:26;72.11;44.73;83.59;;
52872;Laerm;40124;52.198;9.902;2023-04-15T06:41:51;72.55;44.97;85.05;;
52872;Laerm;40124;52.198;9.902;2023-04-15T06:44:16;71.08;44.80;83.84;;
52872;Laerm;40124;52.198;9.902;2023-04-15T06:46:42;71.14;43.24;86.36;;
52872;Laerm;40124;52.198;9.902;2023-04-15T06:49:07;72.52;46.35;86.52;;
52872;Laerm;40124;52.198;9.902;2023-04-15T06:51:33;71.68;45.42;83.34;;
52872;Laerm;40124;52.198;9.902;2023-04-15T06:53:58;70.15;43.90;82.56;;
52872;Laerm;40124;52.198;9.902;2023-04-15T06:56:24;73.09;48.34;84.30;;
52872;Laerm;40124;52.198;9.902;2023-04-15T06:58:49;71.62;46.89;84.15;;
52872;Laerm;40124;52.198;9.902;2023-04-15T07:01:14;69.21;44.15;83.18;;
52872;Laerm;40124;52.198;9.902;2023-04-15T07:03:39;70.82;46.40;83.76;;
52872;Laerm;40124;52.198;9.902;2023-04-15T07:06:05;72.48;47.42;84.99;;
52872;Laerm;40124;52.198;9.902;2023-04-15T07:08:31;73.32;49.56;84.91;;
52872;Laerm;40124;52.198;9.902;2023-04-15T07:10:57;71.28;44.03;83.17;;
52872;Laerm;40124;52.198;9.902;2023-04-15T07:13:22;71.33;46.82;83.97;;
52872;Laerm;40124;52.198;9.902;2023-04-15T07:15:47;70.33;43.34;82.58;;
52872;Laerm;40124;52.198;9.902;2023-04-15T07:18:13;72.33;48.70;82.29;;
52872;Laerm;40124;52.198;9.902;2023-04-15T07:20:38;71.00;45.01;83.65;;
52872;Laerm;40124;52.198;9.902;2023-04-15T07:23:03;71.00;47.24;84.58;;
52872;Laerm;40124;52.198;9.902;2023-04-15T07:25:29;73.00;48.07;83.90;;
52872;Laerm;40124;52.198;9.902;2023-04-15T07:27:54;72.93;51.26;83.30;;
52872;Laerm;40124;52.198;9.902;2023-04-15T07:30:19;71.76;44.15;83.72;;
52872;Laerm;40124;52.198;9.902;2023-04-15T07:32:44;70.35;49.70;82.81;;
52872;Laerm;40124;52.198;9.902;2023-04-15T07:35:10;73.11;48.08;83.42;;
52872;Laerm;40124;52.198;9.902;2023-04-15T07:37:35;73.12;51.98;85.06;;
52872;Laerm;40124;52.198;9.902;2023-04-15T07:40:01;71.00;45.83;84.12;;
52872;Laerm;40124;52.198;9.902;2023-04-15T07:42:26;72.09;50.39;85.74;;
52872;Laerm;40124;52.198;9.902;2023-04-15T07:44:51;73.49;48.21;82.61;;
52872;Laerm;40124;52.198;9.902;2023-04-15T07:47:16;72.48;49.11;83.11;;
52872;Laerm;40124;52.198;9.902;2023-04-15T07:49:41;73.15;51.26;83.40;;
52872;Laerm;40124;52.198;9.902;2023-04-15T07:52:08;73.12;49.20;84.12;;
52872;Laerm;40124;52.198;9.902;2023-04-15T07:54:33;69.64;43.49;82.94;;
52872;Laerm;40124;52.198;9.902;2023-04-15T07:56:58;72.96;47.59;84.64;;
52872;Laerm;40124;52.198;9.902;2023-04-15T07:59:23;73.06;46.48;84.76;;
52872;Laerm;40124;52.198;9.902;2023-04-15T08:01:48;72.61;49.04;83.75;;
52872;Laerm;40124;52.198;9.902;2023-04-15T08:04:14;71.85;45.42;84.77;;
52872;Laerm;40124;52.198;9.902;2023-04-15T08:06:39;72.07;52.30;81.47;;
52872;Laerm;40124;52.198;9.902;2023-04-15T08:09:05;72.44;54.52;83.83;;
52872;Laerm;40124;52.198;9.902;2023-04-15T08:11:31;71.81;46.78;83.35;;
52872;Laerm;40124;52.198;9.902;2023-04-15T08:13:56;73.89;46.97;83.96;;
52872;Laerm;40124;52.198;9.902;2023-04-15T08:16:22;69.27;43.94;83.33;;
52872;Laerm;40124;52.198;9.902;2023-04-15T08:18:48;76.03;52.00;92.45;;
52872;Laerm;40124;52.198;9.902;2023-04-15T08:21:13;69.92;45.30;85.92;;
52872;Laerm;40124;52.198;9.902;2023-04-15T08:23:38;72.35;47.40;83.02;;
52872;Laerm;40124;52.198;9.902;2023-04-15T08:26:04;72.64;51.64;83.00;;
52872;Laerm;40124;52.198;9.902;2023-04-15T08:28:29;77.30;51.10;94.61;;
52872;Laerm;40124;52.198;9.902;2023-04-15T08:30:54;72.99;54.77;82.35;;
52872;Laerm;40124;52.198;9.902;2023-04-15T08:33:20;72.22;44.35;83.42;;
52872;Laerm;40124;52.198;9.902;2023-04-15T08:35:45;72.50;50.99;84.64;;
52872;Laerm;40124;52.198;9.902;2023-04-15T08:38:10;70.99;45.14;83.16;;
52872;Laerm;40124;52.198;9.902;2023-04-15T08:40:40;73.46;47.22;86.50;;
52872;Laerm;40124;52.198;9.902;2023-04-15T08:43:05;71.48;48.52;84.22;;
52872;Laerm;40124;52.198;9.902;2023-04-15T08:45:32;72.31;47.46;82.19;;
52872;Laerm;40124;52.198;9.902;2023-04-15T08:47:58;73.40;49.75;84.41;;
52872;Laerm;40124;52.198;9.902;2023-04-15T08:50:24;71.02;44.15;86.24;;
52872;Laerm;40124;52.198;9.902;2023-04-15T08:52:52;72.42;44.90;83.94;;
52872;Laerm;40124;52.198;9.902;2023-04-15T08:55:17;71.04;45.30;82.14;;
52872;Laerm;40124;52.198;9.902;2023-04-15T08:57:43;74.04;50.56;84.78;;
52872;Laerm;40124;52.198;9.902;2023-04-15T09:00:08;73.38;56.09;85.06;;
52872;Laerm;40124;52.198;9.902;2023-04-15T09:02:34;72.52;47.91;84.26;;
52872;Laerm;40124;52.198;9.902;2023-04-15T09:04:59;72.31;45.42;83.33;;
52872;Laerm;40124;52.198;9.902;2023-04-15T09:07:25;72.19;48.05;83.45;;
52872;Laerm;40124;52.198;9.902;2023-04-15T09:09:50;70.71;43.14;82.80;;
52872;Laerm;40124;52.198;9.902;2023-04-15T09:12:16;71.98;52.04;86.11;;
52872;Laerm;40124;52.198;9.902;2023-04-15T09:14:45;72.14;50.85;80.56;;
52872;Laerm;40124;52.198;9.902;2023-04-15T09:17:12;74.11;54.08;84.74;;
52872;Laerm;40124;52.198;9.902;2023-04-15T09:19:37;71.32;49.92;80.61;;
52872;Laerm;40124;52.198;9.902;2023-04-15T09:22:02;71.18;43.72;82.03;;
52872;Laerm;40124;52.198;9.902;2023-04-15T09:24:35;71.44;49.95;84.06;;
52872;Laerm;40124;52.198;9.902;2023-04-15T09:27:01;73.05;47.02;83.07;;
52872;Laerm;40124;52.198;9.902;2023-04-15T09:29:27;73.66;49.59;86.85;;
52872;Laerm;40124;52.198;9.902;2023-04-15T09:31:52;71.16;49.14;82.32;;
52872;Laerm;40124;52.198;9.902;2023-04-15T09:34:18;72.88;47.68;84.11;;
52872;Laerm;40124;52.198;9.902;2023-04-15T09:39:11;72.56;51.85;84.69;;
52872;Laerm;40124;52.198;9.902;2023-04-15T09:41:37;69.94;45.01;81.28;;
52872;Laerm;40124;52.198;9.902;2023-04-15T09:44:02;72.91;50.95;82.38;;
52872;Laerm;40124;52.198;9.902;2023-04-15T09:46:40;73.20;53.01;84.76;;
52872;Laerm;40124;52.198;9.902;2023-04-15T09:49:07;72.15;46.28;84.43;;
52872;Laerm;40124;52.198;9.902;2023-04-15T09:51:33;72.28;46.52;83.06;;
52872;Laerm;40124;52.198;9.902;2023-04-15T09:53:59;70.62;54.36;82.89;;
52872;Laerm;40124;52.198;9.902;2023-04-15T09:56:24;70.79;52.57;83.42;;
52872;Laerm;40124;52.198;9.902;2023-04-15T09:58:56;72.19;50.74;83.56;;
52872;Laerm;40124;52.198;9.902;2023-04-15T10:01:21;70.23;48.13;81.23;;
52872;Laerm;40124;52.198;9.902;2023-04-15T10:03:46;71.98;49.19;81.61;;
52872;Laerm;40124;52.198;9.902;2023-04-15T10:06:11;70.33;46.76;82.14;;
52872;Laerm;40124;52.198;9.902;2023-04-15T10:08:38;72.00;57.76;82.19;;
52872;Laerm;40124;52.198;9.902;2023-04-15T10:11:05;70.87;44.58;82.76;;
52872;Laerm;40124;52.198;9.902;2023-04-15T10:13:31;70.20;44.15;84.99;;
52872;Laerm;40124;52.198;9.902;2023-04-15T10:16:04;70.12;41.89;81.13;;
52872;Laerm;40124;52.198;9.902;2023-04-15T10:18:31;69.86;43.44;84.44;;
52872;Laerm;40124;52.198;9.902;2023-04-15T10:20:58;71.81;48.03;82.33;;
52872;Laerm;40124;52.198;9.902;2023-04-15T10:23:24;69.96;43.94;83.07;;
52872;Laerm;40124;52.198;9.902;2023-04-15T10:25:50;72.66;50.20;82.37;;
52872;Laerm;40124;52.198;9.902;2023-04-15T10:28:16;70.72;48.67;82.94;;
52872;Laerm;40124;52.198;9.902;2023-04-15T10:30:41;71.28;46.64;82.82;;
52872;Laerm;40124;52.198;9.902;2023-04-15T10:33:07;69.88;43.29;81.19;;
52872;Laerm;40124;52.198;9.902;2023-04-15T10:35:33;71.79;49.57;84.09;;
52872;Laerm;40124;52.198;9.902;2023-04-15T10:37:58;70.38;44.90;82.76;;
52872;Laerm;40124;52.198;9.902;2023-04-15T10:40:25;71.65;42.16;87.20;;
52872;Laerm;40124;52.198;9.902;2023-04-15T10:42:54;69.64;43.72;80.26;;
52872;Laerm;40124;52.198;9.902;2023-04-15T10:45:19;69.89;43.24;80.29;;
52872;Laerm;40124;52.198;9.902;2023-04-15T10:47:44;76.54;51.56;93.35;;
52872;Laerm;40124;52.198;9.902;2023-04-15T10:50:10;72.24;48.39;84.83;;
52872;Laerm;40124;52.198;9.902;2023-04-15T10:52:36;69.47;44.87;82.35;;
52872;Laerm;40124;52.198;9.902;2023-04-15T10:55:17;71.58;46.55;84.65;;
52872;Laerm;40124;52.198;9.902;2023-04-15T10:57:43;71.11;44.62;82.51;;
52872;Laerm;40124;52.198;9.902;2023-04-15T11:00:15;70.51;43.86;85.11;;
52872;Laerm;40124;52.198;9.902;2023-04-15T11:02:42;68.95;46.89;80.49;;
52872;Laerm;40124;52.198;9.902;2023-04-15T11:05:07;71.19;44.03;82.37;;
52872;Laerm;40124;52.198;9.902;2023-04-15T11:10:01;69.19;41.96;82.70;;
52872;Laerm;40124;52.198;9.902;2023-04-15T11:12:35;69.22;44.43;80.01;;
52872;Laerm;40124;52.198;9.902;2023-04-15T11:17:46;71.40;52.47;82.96;;
52872;Laerm;40124;52.198;9.902;2023-04-15T11:20:13;70.72;50.08;81.32;;
52872;Laerm;40124;52.198;9.902;2023-04-15T11:22:45;73.20;48.48;89.60;;
52872;Laerm;40124;52.198;9.902;2023-04-15T11:25:15;71.90;49.39;86.62;;
52872;Laerm;40124;52.198;9.902;2023-04-15T11:27:45;72.25;48.13;83.40;;
52872;Laerm;40124;52.198;9.902;2023-04-15T11:30:18;70.06;42.69;81.60;;
52872;Laerm;40124;52.198;9.902;2023-04-15T11:32:44;70.18;45.86;80.33;;
52872;Laerm;40124;52.198;9.902;2023-04-15T11:35:09;70.40;42.65;81.83;;
52872;Laerm;40124;52.198;9.902;2023-04-15T11:37:34;71.62;48.92;81.56;;
52872;Laerm;40124;52.198;9.902;2023-04-15T11:40:01;70.83;49.89;80.76;;
52872;Laerm;40124;52.198;9.902;2023-04-15T11:42:26;70.37;46.18;84.05;;
52872;Laerm;40124;52.198;9.902;2023-04-15T11:44:58;72.45;44.07;84.73;;
52872;Laerm;40124;52.198;9.902;2023-04-15T11:47:30;70.68;43.90;81.85;;
52872;Laerm;40124;52.198;9.902;2023-04-15T11:49:55;71.42;45.17;83.82;;
52872;Laerm;40124;52.198;9.902;2023-04-15T11:52:20;70.11;50.66;81.65;;
52872;Laerm;40124;52.198;9.902;2023-04-15T11:54:46;70.35;45.89;81.07;;
52872;Laerm;40124;52.198;9.902;2023-04-15T11:57:12;72.77;57.73;81.24;;
52872;Laerm;40124;52.198;9.902;2023-04-15T11:59:40;72.39;53.73;82.23;;
52872;Laerm;40124;52.198;9.902;2023-04-15T12:02:12;71.53;44.94;81.98;;
52872;Laerm;40124;52.198;9.902;2023-04-15T12:04:38;68.20;45.66;79.36;;
52872;Laerm;40124;52.198;9.902;2023-04-15T12:07:03;69.22;48.13;81.28;;
52872;Laerm;40124;52.198;9.902;2023-04-15T12:09:28;69.43;47.63;80.99;;
52872;Laerm;40124;52.198;9.902;2023-04-15T12:11:56;72.26;44.90;88.98;;
52872;Laerm;40124;52.198;9.902;2023-04-15T12:16:47;70.46;46.40;81.79;;
52872;Laerm;40124;52.198;9.902;2023-04-15T12:19:14;70.56;44.58;84.82;;
52872;Laerm;40124;52.198;9.902;2023-04-15T12:21:40;69.82;48.39;83.49;;
52872;Laerm;40124;52.198;9.902;2023-04-15T12:24:07;69.33;51.96;81.96;;
52872;Laerm;40124;52.198;9.902;2023-04-15T12:26:34;69.56;46.13;80.79;;
52872;Laerm;40124;52.198;9.902;2023-04-15T12:29:01;70.28;44.19;80.37;;
52872;Laerm;40124;52.198;9.902;2023-04-15T12:31:26;70.55;50.30;81.52;;
52872;Laerm;40124;52.198;9.902;2023-04-15T12:33:54;70.79;43.81;87.76;;
52872;Laerm;40124;52.198;9.902;2023-04-15T12:36:19;72.28;48.39;82.59;;
52872;Laerm;40124;52.198;9.902;2023-04-15T12:38:44;70.28;45.04;82.42;;
52872;Laerm;40124;52.198;9.902;2023-04-15T12:41:09;71.19;49.23;81.35;;
52872;Laerm;40124;52.198;9.902;2023-04-15T12:43:35;72.24;49.66;83.03;;
52872;Laerm;40124;52.198;9.902;2023-04-15T12:46:00;70.48;46.30;86.21;;
52872;Laerm;40124;52.198;9.902;2023-04-15T12:48:26;70.91;50.21;82.08;;
52872;Laerm;40124;52.198;9.902;2023-04-15T12:50:51;68.39;46.59;82.52;;
52872;Laerm;40124;52.198;9.902;2023-04-15T12:53:16;69.49;47.68;81.08;;
52872;Laerm;40124;52.198;9.902;2023-04-15T12:55:41;69.41;52.43;84.95;;
52872;Laerm;40124;52.198;9.902;2023-04-15T12:58:06;71.38;50.24;81.85;;
52872;Laerm;40124;52.198;9.902;2023-04-15T13:00:33;70.22;49.79;82.02;;
52872;Laerm;40124;52.198;9.902;2023-04-15T13:02:58;70.85;48.55;86.91;;
52872;Laerm;40124;52.198;9.902;2023-04-15T13:05:23;70.73;49.45;85.59;;
52872;Laerm;40124;52.198;9.902;2023-04-15T13:07:48;68.42;42.76;80.20;;
52872;Laerm;40124;52.198;9.902;2023-04-15T13:10:13;71.43;53.90;80.94;;
52872;Laerm;40124;52.198;9.902;2023-04-15T13:12:38;68.90;46.55;80.57;;
52872;Laerm;40124;52.198;9.902;2023-04-15T13:15:03;70.87;46.95;83.37;;
52872;Laerm;40124;52.198;9.902;2023-04-15T13:17:29;70.39;50.63;80.49;;
52872;Laerm;40124;52.198;9.902;2023-04-15T13:19:55;70.25;51.75;80.81;;
52872;Laerm;40124;52.198;9.902;2023-04-15T13:22:20;68.64;46.95;80.87;;
52872;Laerm;40124;52.198;9.902;2023-04-15T13:24:45;71.35;48.81;81.95;;
52872;Laerm;40124;52.198;9.902;2023-04-15T13:27:10;70.76;48.37;81.42;;
52872;Laerm;40124;52.198;9.902;2023-04-15T13:29:35;70.06;48.23;81.76;;
52872;Laerm;40124;52.198;9.902;2023-04-15T13:32:00;69.84;47.57;80.75;;
52872;Laerm;40124;52.198;9.902;2023-04-15T13:34:26;71.55;46.35;83.40;;
52872;Laerm;40124;52.198;9.902;2023-04-15T13:36:51;67.42;43.29;80.89;;
52872;Laerm;40124;52.198;9.902;2023-04-15T13:39:16;68.35;45.01;81.50;;
52872;Laerm;40124;52.198;9.902;2023-04-15T13:41:41;69.80;45.97;84.25;;
52872;Laerm;40124;52.198;9.902;2023-04-15T13:44:06;70.49;46.10;81.62;;
52872;Laerm;40124;52.198;9.902;2023-04-15T13:46:31;70.54;44.76;81.80;;